createdAt,value
2018-10-09T00:00:43.268Z,14.50
2018-10-09T00:03:11.785Z,14.60
2018-10-09T00:05:40.291Z,14.60
2018-10-09T00:08:08.725Z,14.50
2018-10-09T00:10:37.977Z,14.50
2018-10-09T00:13:07.390Z,14.50
2018-10-09T00:15:35.997Z,14.40
2018-10-09T00:18:05.005Z,14.40
2018-10-09T00:20:33.504Z,14.50
2018-10-09T00:23:02.046Z,14.50
2018-10-09T00:25:30.565Z,14.50
2018-10-09T00:27:59.091Z,14.50
2018-10-09T00:30:28.569Z,14.50
2018-10-09T00:50:18.582Z,14.60
2018-10-09T00:52:47.124Z,14.60
2018-10-09T00:55:15.668Z,14.60
2018-10-09T00:57:44.314Z,14.60
2018-10-09T01:00:13.726Z,14.60
2018-10-09T01:02:43.029Z,14.60
2018-10-09T01:05:11.833Z,14.60
2018-10-09T01:07:40.268Z,14.60
2018-10-09T01:10:08.772Z,14.60
2018-10-09T01:12:38.600Z,14.60
2018-10-09T01:15:07.142Z,14.60
2018-10-09T01:34:57.205Z,14.50
2018-10-09T01:37:26.434Z,14.50
2018-10-09T01:57:15.438Z,14.70
2018-10-09T01:59:43.942Z,14.60
2018-10-09T02:02:12.998Z,14.70
2018-10-09T02:04:41.697Z,14.70
2018-10-09T02:07:10.189Z,14.70
2018-10-09T02:09:39.489Z,14.70
2018-10-09T02:12:08.190Z,14.70
2018-10-09T02:14:36.689Z,14.70
2018-10-09T02:17:05.897Z,14.70
2018-10-09T02:19:34.871Z,14.70
2018-10-09T02:22:03.273Z,14.70
2018-10-09T02:41:54.001Z,14.70
2018-10-09T02:44:22.535Z,14.70
2018-10-09T02:46:51.001Z,14.70
2018-10-09T02:49:19.567Z,14.80
2018-10-09T02:51:48.015Z,14.70
2018-10-09T02:54:16.782Z,14.70
2018-10-09T02:56:45.338Z,14.70
2018-10-09T02:59:13.849Z,14.80
2018-10-09T03:01:43.131Z,14.80
2018-10-09T03:04:13.182Z,14.80
2018-10-09T03:06:41.746Z,14.70
2018-10-09T03:26:32.232Z,14.70
2018-10-09T03:29:00.905Z,14.70
2018-10-09T03:31:29.965Z,14.70
2018-10-09T03:33:59.921Z,14.70
2018-10-09T03:36:28.500Z,14.70
2018-10-09T03:38:57.022Z,14.70
2018-10-09T03:41:25.729Z,14.70
2018-10-09T03:43:54.854Z,14.70
2018-10-09T03:46:23.965Z,14.80
2018-10-09T03:48:53.237Z,14.80
2018-10-09T03:51:21.803Z,14.70
2018-10-09T04:11:11.441Z,14.70
2018-10-09T04:13:40.709Z,14.70
2018-10-09T04:16:10.762Z,14.70
2018-10-09T04:18:39.309Z,14.70
2018-10-09T04:21:08.832Z,14.70
2018-10-09T04:23:38.335Z,14.70
2018-10-09T04:26:07.474Z,14.70
2018-10-09T04:28:36.083Z,14.70
2018-10-09T04:31:04.501Z,14.70
2018-10-09T04:33:33.337Z,14.70
2018-10-09T04:36:01.825Z,14.70
2018-10-09T04:38:30.833Z,14.70
2018-10-09T04:40:59.557Z,14.70
2018-10-09T04:43:29.056Z,14.60
2018-10-09T04:45:58.268Z,14.70
2018-10-09T04:48:26.881Z,14.70
2018-10-09T04:50:55.993Z,14.70
2018-10-09T04:53:24.495Z,14.70
2018-10-09T04:55:53.016Z,14.70
2018-10-09T04:58:21.452Z,14.70
2018-10-09T05:00:50.038Z,14.70
2018-10-09T05:03:18.608Z,14.70
2018-10-09T05:05:48.521Z,14.70
2018-10-09T05:08:16.945Z,14.70
2018-10-09T05:10:45.704Z,14.70
2018-10-09T05:13:14.230Z,14.70
2018-10-09T05:15:42.815Z,14.70
2018-10-09T05:18:11.377Z,14.70
2018-10-09T05:20:39.818Z,14.70
2018-10-09T05:40:29.553Z,14.60
2018-10-09T05:42:59.109Z,14.60
2018-10-09T05:45:28.173Z,14.60
2018-10-09T05:47:57.005Z,14.60
2018-10-09T05:50:25.521Z,14.60
2018-10-09T05:52:54.039Z,14.60
2018-10-09T05:55:23.938Z,14.70
2018-10-09T05:57:52.406Z,14.70
2018-10-09T06:00:21.829Z,14.70
2018-10-09T06:02:50.782Z,14.70
2018-10-09T06:05:19.476Z,14.70
2018-10-09T06:07:47.953Z,14.70
2018-10-09T06:10:16.533Z,14.70
2018-10-09T06:12:45.218Z,14.80
2018-10-09T06:15:13.748Z,14.80
2018-10-09T06:17:43.638Z,14.80
2018-10-09T06:20:12.262Z,14.80
2018-10-09T06:22:40.940Z,14.80
2018-10-09T06:25:09.872Z,14.80
2018-10-09T06:27:40.086Z,14.80
2018-10-09T06:47:29.552Z,15.00
2018-10-09T06:49:57.981Z,15.10
2018-10-09T06:52:26.505Z,15.10
2018-10-09T06:54:55.053Z,15.10
2018-10-09T06:57:23.418Z,15.10
2018-10-09T06:59:51.909Z,15.20
2018-10-09T07:02:20.666Z,15.20
2018-10-09T07:22:09.590Z,15.30
2018-10-09T07:24:38.574Z,15.30
2018-10-09T07:27:07.181Z,15.40
2018-10-09T07:29:35.909Z,15.40
2018-10-09T07:49:25.482Z,15.70
2018-10-09T07:51:54.029Z,15.70
2018-10-09T07:54:22.714Z,15.60
2018-10-09T07:56:52.362Z,15.60
2018-10-09T07:59:21.490Z,15.70
2018-10-09T08:01:50.646Z,15.70
2018-10-09T08:04:19.714Z,15.70
2018-10-09T08:06:48.239Z,15.80
2018-10-09T08:26:37.591Z,15.80
2018-10-09T08:29:06.301Z,15.90
2018-10-09T08:31:34.953Z,16.00
2018-10-09T08:34:03.704Z,16.00
2018-10-09T08:36:32.246Z,16.00
2018-10-09T08:39:00.763Z,16.10
2018-10-09T08:41:29.398Z,16.10
2018-10-09T08:43:57.934Z,16.10
2018-10-09T08:46:26.635Z,16.20
2018-10-09T08:48:55.417Z,16.20
2018-10-09T08:51:24.054Z,16.30
2018-10-09T08:53:52.637Z,16.30
2018-10-09T08:56:22.038Z,16.30
2018-10-09T08:58:50.554Z,16.30
2018-10-09T09:01:19.042Z,16.40
2018-10-09T09:03:47.707Z,16.40
2018-10-09T09:06:16.799Z,16.40
2018-10-09T09:08:46.341Z,16.40
2018-10-09T09:11:14.879Z,16.50
2018-10-09T09:31:03.836Z,17.10
2018-10-09T09:33:32.705Z,17.10
2018-10-09T09:36:01.178Z,17.10
2018-10-09T09:38:30.141Z,17.10
2018-10-09T09:41:00.132Z,17.10
2018-10-09T09:43:28.632Z,17.10
2018-10-09T09:45:57.248Z,17.20
2018-10-09T09:48:25.896Z,17.20
2018-10-09T09:50:54.357Z,17.20
2018-10-09T09:53:22.793Z,17.20
2018-10-09T09:55:51.601Z,17.30
2018-10-09T09:58:20.158Z,17.30
2018-10-09T10:00:54.421Z,17.30
2018-10-09T10:03:23.589Z,17.30
2018-10-09T10:05:52.093Z,17.30
2018-10-09T10:08:21.629Z,17.20
2018-10-09T10:10:50.597Z,17.20
2018-10-09T10:13:19.221Z,17.10
2018-10-09T10:15:49.088Z,17.10
2018-10-09T10:18:17.569Z,17.10
2018-10-09T10:20:46.634Z,17.10
2018-10-09T10:23:15.097Z,17.20
2018-10-09T10:25:44.338Z,17.20
2018-10-09T10:28:13.814Z,17.20
2018-10-09T10:30:42.904Z,17.20
2018-10-09T10:50:33.834Z,17.20
2018-10-09T10:53:02.663Z,17.20
2018-10-09T10:55:31.236Z,17.20
2018-10-09T10:57:59.810Z,17.20
2018-10-09T11:00:28.365Z,17.20
2018-10-09T11:02:57.724Z,17.10
2018-10-09T11:05:26.239Z,17.10
2018-10-09T11:25:17.063Z,17.80
2018-10-09T11:27:45.575Z,17.80
2018-10-09T11:30:14.514Z,17.80
2018-10-09T11:32:43.162Z,17.80
2018-10-09T11:35:11.759Z,17.80
2018-10-09T11:37:40.420Z,17.70
2018-10-09T11:40:09.116Z,17.70
2018-10-09T11:42:37.601Z,17.60
2018-10-09T11:45:06.141Z,17.50
2018-10-09T11:47:36.003Z,17.50
2018-10-09T11:50:05.334Z,17.40
2018-10-09T12:09:29.520Z,17.50
2018-10-09T12:11:58.011Z,17.60
2018-10-09T12:17:21.011Z,17.50
2018-10-09T12:19:49.814Z,17.50
2018-10-09T12:59:54.522Z,18.00
2018-10-09T13:02:23.263Z,18.00
2018-10-09T13:04:52.011Z,17.90
2018-10-09T13:07:20.983Z,17.90
2018-10-09T13:09:49.624Z,17.90
2018-10-09T13:12:18.175Z,17.90
2018-10-09T13:14:46.789Z,17.90
2018-10-09T13:17:15.784Z,17.90
2018-10-09T13:19:44.677Z,17.90
2018-10-09T13:22:13.437Z,17.90
2018-10-09T13:24:42.139Z,17.90
2018-10-09T13:27:11.184Z,17.90
2018-10-09T13:29:39.798Z,18.00
2018-10-09T13:32:08.733Z,18.00
2018-10-09T13:51:58.014Z,18.50
2018-10-09T14:11:46.280Z,19.00
2018-10-09T14:31:36.113Z,20.10
2018-10-09T14:34:04.676Z,20.00
2018-10-09T14:53:52.462Z,20.20
2018-10-09T14:56:21.464Z,20.50
2018-10-09T14:58:50.084Z,20.80
2018-10-09T15:01:18.698Z,20.90
2018-10-09T15:03:47.842Z,20.90
2018-10-09T15:06:16.464Z,20.90
2018-10-09T15:08:45.093Z,20.70
2018-10-09T15:11:14.201Z,20.40
2018-10-09T15:13:42.788Z,20.30
2018-10-09T15:16:11.422Z,20.20
2018-10-09T15:18:40.328Z,20.30
2018-10-09T15:21:08.985Z,20.20
2018-10-09T15:23:37.664Z,20.00
2018-10-09T15:26:06.610Z,19.90
2018-10-09T15:28:35.244Z,19.80
2018-10-09T15:48:25.048Z,19.50
2018-10-09T15:50:53.694Z,19.50
2018-10-09T15:53:22.364Z,19.40
2018-10-09T15:55:51.113Z,19.10
2018-10-09T15:58:19.670Z,18.90
2018-10-09T16:00:48.150Z,18.90
2018-10-09T16:03:17.236Z,18.70
2018-10-09T16:05:45.968Z,18.60
2018-10-09T16:08:14.577Z,18.50
2018-10-09T16:28:02.941Z,17.60
2018-10-09T16:30:31.521Z,17.40
2018-10-09T16:33:00.634Z,17.30
2018-10-09T16:35:29.593Z,17.20
2018-10-09T16:37:58.456Z,17.00
2018-10-09T16:40:27.206Z,17.00
2018-10-09T17:00:16.011Z,16.40
2018-10-09T17:02:44.625Z,16.30
2018-10-09T17:05:13.265Z,16.20
2018-10-09T17:07:42.457Z,16.10
2018-10-09T17:27:32.043Z,15.70
2018-10-09T17:30:00.758Z,15.60
2018-10-09T17:32:29.587Z,15.60
2018-10-09T17:52:19.636Z,15.30
2018-10-09T17:54:48.230Z,15.20
2018-10-09T17:57:16.890Z,15.10
2018-10-09T17:59:45.658Z,15.10
2018-10-09T18:02:14.160Z,15.10
2018-10-09T18:04:42.948Z,14.90
2018-10-09T18:07:11.775Z,14.80
2018-10-09T18:09:40.393Z,14.80
2018-10-09T18:29:26.795Z,14.70
2018-10-09T18:49:15.904Z,14.30
2018-10-09T18:51:44.575Z,14.30
2018-10-09T19:11:33.286Z,14.10
2018-10-09T19:14:02.151Z,14.10
2018-10-09T19:16:30.834Z,14.10
2018-10-09T19:36:18.074Z,14.00
2018-10-09T19:38:46.742Z,13.90
2018-10-09T19:41:15.550Z,13.80
2018-10-09T19:43:44.531Z,13.80
2018-10-09T20:03:33.086Z,13.70
2018-10-09T20:23:22.243Z,13.30
2018-10-09T20:25:50.873Z,13.30
2018-10-09T20:28:19.513Z,13.30
2018-10-09T20:30:48.145Z,13.30
2018-10-09T20:33:16.795Z,13.20
2018-10-09T20:53:05.286Z,13.10
2018-10-09T20:55:33.876Z,13.10
2018-10-09T20:58:02.530Z,13.10
2018-10-09T21:00:31.252Z,13.00
2018-10-09T21:20:20.256Z,13.10
2018-10-09T21:22:48.969Z,13.10
2018-10-09T21:25:17.588Z,13.10
2018-10-09T21:27:46.201Z,13.00
2018-10-09T21:30:15.173Z,13.10
2018-10-09T21:32:43.805Z,13.00
2018-10-09T21:35:12.396Z,13.10
2018-10-09T21:37:41.039Z,13.10
2018-10-09T21:40:09.744Z,13.10
2018-10-09T21:42:38.587Z,13.00
2018-10-09T21:45:07.337Z,13.00
2018-10-09T21:47:35.942Z,13.00
2018-10-09T21:50:04.764Z,12.90
2018-10-09T21:52:33.429Z,12.80
2018-10-09T21:55:02.026Z,12.80
2018-10-09T21:57:30.681Z,12.80
2018-10-09T21:59:59.432Z,12.80
2018-10-09T22:02:28.001Z,12.70
2018-10-09T22:04:56.669Z,12.80
2018-10-09T22:07:25.230Z,12.70
2018-10-09T22:09:53.791Z,12.70
2018-10-09T22:12:22.450Z,12.70
2018-10-09T22:14:51.218Z,12.70
2018-10-09T22:17:19.797Z,12.70
2018-10-09T22:19:48.360Z,12.70
2018-10-09T22:39:37.402Z,13.20
2018-10-09T22:42:06.066Z,13.20
2018-10-09T22:44:34.871Z,13.40
2018-10-09T22:47:03.772Z,13.40
2018-10-09T23:06:50.769Z,13.40
2018-10-09T23:09:19.561Z,13.50
2018-10-09T23:11:48.117Z,13.60
2018-10-09T23:14:17.363Z,13.60
2018-10-09T23:16:46.034Z,13.70
2018-10-09T23:19:14.699Z,13.70
2018-10-09T23:21:43.307Z,13.70
2018-10-09T23:24:11.998Z,13.60
2018-10-09T23:26:40.577Z,13.70
2018-10-09T23:46:29.181Z,13.80
2018-10-09T23:48:57.842Z,13.90
2018-10-09T23:51:26.515Z,13.80
2018-10-09T23:53:55.231Z,13.80
